KDOV/DOV METAR and TAF weather

Enter ICAO airport designator
Station Type Date Time Source
KDOV METAR 2020/11/27 13:56 UTC NOAA

KDOV 271356Z AUTO 00000KT 10SM BKN046 OVC070 13/09 A3010 RMK AO2 SLP196 T01290088 $


Station Type Date Time Source
KDOV Decoded METAR 2020/11/27 13:56 UTC NOAA

Dover Air Force Base, DE, United States (KDOV) 39-08N 075-28W
Nov 27, 2020 - 08:56 AM EST / 2020.11.27 1356 UTC
Wind: Calm:0
Visibility: 10 mile(s):0
Sky conditions: overcast
Temperature: 55.2 F (12.9 C)
Dew Point: 47.8 F (8.8 C)
Relative Humidity: 76%
Pressure (altimeter): 30.1 in. Hg (1019 hPa)
ob: KDOV 271356Z AUTO 00000KT 10SM BKN046 OVC070 13/09 A3010 RMK AO2 SLP196 T01290088
cycle: 14

Station Type Date Time Source
KDOV TAF 2020/11/27 08:56 UTC NOAA

TAF KDOV 270800Z 2708/2814 32006KT 9999 BKN060 QNH3003INS
BECMG 2722/2723 27006KT 9999 SCT020 QNH2999INS
BECMG 2807/2808 30006KT 9999 BKN050 QNH2999INS
BECMG 2810/2811 31006KT 9999 SCT020 QNH3001INS TX15/2720Z TN07/2808Z

Example: see airport list